Terminal Aerodrome Forecast
Issued by NWS Austin/San Antonio, TX

Home | Current Version | Previous Version | Text Only | Print | Product List | Glossary On
Versions: 1 2 3 4 5 6 7 8 9 10 11 12 13 14 15 16 17 18 19 20 21 22
000
FTUS44 KEWX 271140
TAFDRT
TAF
KDRT 271140Z 2712/2812 11010KT P6SM OVC010
     FM271600 13012KT P6SM BKN015
     FM271800 13012G22KT P6SM BKN040
     FM280700 11012KT P6SM OVC015=

USA.gov is the U.S. government's official web portal to all federal, state and local government web resources and services.